Time;durP1;ratioP1;P1;durP2;ratioP2;P2;SDS_P1;SDS_P2;PMS_P1;PMS_P2;Temp;Humidity;BMP_temperature;BMP_pressure;BME280_temperature;BME280_humidity;BME280_pressure;Samples;Min_cycle;Max_cycle;Signal;HPM_P1;HPM_P2
2022/01/09 00:00:52;;;;;;;4.10;2.07;;;;;;;4.53;100.00;98549.88;2107832;28;20055;-65
2022/01/09 00:01:52;;;;;;;5.33;2.10;;;;;;;4.51;100.00;98544.78;2107690;28;20488;-64
2022/01/09 00:02:53;;;;;;;2.97;1.60;;;;;;;4.54;100.00;98548.94;2107716;28;20048;-64
2022/01/09 00:03:53;;;;;;;7.35;2.85;;;;;;;4.56;100.00;98546.28;2107766;28;20141;-64
2022/01/09 00:04:53;;;;;;;5.57;2.63;;;;;;;4.58;100.00;98547.03;2107720;28;20488;-63
2022/01/09 00:05:54;;;;;;;3.90;2.37;;;;;;;4.61;100.00;98560.63;2107572;28;20489;-64
2022/01/09 00:06:54;;;;;;;5.33;2.73;;;;;;;4.64;100.00;98559.63;2107810;28;20426;-63
2022/01/09 00:07:54;;;;;;;6.27;3.50;;;;;;;4.66;100.00;98572.44;2098555;28;20107;-63
2022/01/09 00:08:55;;;;;;;5.43;4.00;;;;;;;4.69;100.00;98562.78;2098699;28;20017;-64
2022/01/09 00:09:56;;;;;;;8.20;4.60;;;;;;;4.71;100.00;98571.28;2107695;28;20016;-63
2022/01/09 00:10:56;;;;;;;9.98;4.60;;;;;;;4.75;100.00;98579.69;2098521;28;20473;-64
2022/01/09 00:11:57;;;;;;;8.83;4.70;;;;;;;4.79;100.00;98585.53;2098639;28;20025;-64
2022/01/09 00:12:58;;;;;;;6.80;4.60;;;;;;;4.84;100.00;98596.44;2107531;28;20016;-65
2022/01/09 00:13:58;;;;;;;6.93;4.10;;;;;;;4.89;100.00;98584.09;2107722;28;20064;-63
2022/01/09 00:14:58;;;;;;;6.83;4.10;;;;;;;4.88;100.00;98585.88;2107674;28;20036;-63
2022/01/09 00:15:59;;;;;;;8.27;4.33;;;;;;;4.93;100.00;98600.28;2107533;28;20101;-64
2022/01/09 00:16:59;;;;;;;5.73;4.00;;;;;;;4.89;100.00;98603.03;2107624;28;20063;-64
2022/01/09 00:18:00;;;;;;;6.75;4.18;;;;;;;4.87;100.00;98612.66;2107479;28;20026;-64
2022/01/09 00:19:00;;;;;;;6.00;4.03;;;;;;;4.82;100.00;98624.97;2098543;28;20028;-64
2022/01/09 00:20:01;;;;;;;3.40;3.10;;;;;;;4.82;100.00;98634.47;2098694;28;20024;-65
2022/01/09 00:21:05;;;;;;;4.78;2.90;;;;;;;4.76;100.00;98628.72;2107584;28;20481;-65
2022/01/09 00:22:07;;;;;;;4.82;2.67;;;;;;;4.72;100.00;98654.81;2107597;28;20012;-66
2022/01/09 00:23:07;;;;;;;7.03;3.05;;;;;;;4.66;100.00;98650.81;2107482;28;20036;-66
2022/01/09 00:24:08;;;;;;;4.30;2.10;;;;;;;4.66;100.00;98652.53;2107525;28;20076;-65
2022/01/09 00:25:09;;;;;;;6.13;2.60;;;;;;;4.63;100.00;98659.53;2098657;28;20554;-65
2022/01/09 00:26:09;;;;;;;4.35;2.58;;;;;;;4.64;100.00;98668.97;2090196;28;20158;-66
2022/01/09 00:27:09;;;;;;;4.10;2.23;;;;;;;4.67;100.00;98685.22;2098515;28;20024;-66
2022/01/09 00:28:10;;;;;;;5.73;2.50;;;;;;;4.59;100.00;98676.09;2107745;28;20020;-65
2022/01/09 00:29:10;;;;;;;6.73;2.43;;;;;;;4.54;100.00;98685.00;2107499;28;20044;-65
2022/01/09 00:30:12;;;;;;;5.60;1.70;;;;;;;4.51;100.00;98688.59;2106718;28;20032;-65
2022/01/09 00:31:13;;;;;;;7.72;3.25;;;;;;;4.45;100.00;98694.09;2106875;28;20027;-65
2022/01/09 00:32:13;;;;;;;2.90;1.67;;;;;;;4.45;100.00;98682.00;2107424;28;20024;-66
2022/01/09 00:33:13;;;;;;;6.83;2.63;;;;;;;4.46;100.00;98688.84;2098379;28;20432;-65
2022/01/09 00:34:13;;;;;;;6.53;2.30;;;;;;;4.41;100.00;98705.50;2098577;28;20056;-65
2022/01/09 00:35:14;;;;;;;3.70;1.67;;;;;;;4.36;100.00;98693.66;2107528;28;20115;-66
2022/01/09 00:36:15;;;;;;;10.13;2.63;;;;;;;4.38;100.00;98693.59;2107370;28;20096;-65
2022/01/09 00:37:15;;;;;;;2.53;1.30;;;;;;;4.37;100.00;98695.31;2107421;28;20480;-65
2022/01/09 00:38:16;;;;;;;8.70;1.90;;;;;;;4.43;100.00;98707.09;2107471;28;20020;-67
2022/01/09 00:39:17;;;;;;;;;;;;;;;4.36;100.00;98705.72;2107807;28;20020;-65
2022/01/09 00:40:17;;;;;;;8.20;1.75;;;;;;;4.40;100.00;98706.38;2107452;28;19914;-65
2022/01/09 00:41:17;;;;;;;8.37;1.77;;;;;;;4.38;100.00;98725.41;2107376;28;20366;-67
2022/01/09 00:42:18;;;;;;;15.97;2.47;;;;;;;4.44;100.00;98728.56;2098361;28;20111;-66
2022/01/09 00:43:19;;;;;;;16.50;2.50;;;;;;;4.42;100.00;98725.25;2090129;28;20152;-67
2022/01/09 00:44:19;;;;;;;13.90;2.70;;;;;;;4.45;100.00;98731.06;2098504;28;20042;-67
2022/01/09 00:45:19;;;;;;;12.43;3.23;;;;;;;4.42;100.00;98730.41;2097689;28;20043;-67
2022/01/09 00:46:20;;;;;;;8.40;2.70;;;;;;;4.38;100.00;98740.06;2098103;28;20028;-66
2022/01/09 00:47:20;;;;;;;18.43;3.03;;;;;;;4.35;100.00;98720.38;2106761;28;20031;-65
2022/01/09 00:48:20;;;;;;;21.43;3.30;;;;;;;4.35;100.00;98741.03;2106780;28;20104;-66
2022/01/09 00:49:20;;;;;;;15.70;3.73;;;;;;;4.34;100.00;98741.13;2107442;28;20042;-68
2022/01/09 00:50:21;;;;;;;15.50;3.17;;;;;;;4.32;100.00;98732.63;2107491;28;20077;-66
2022/01/09 00:51:23;;;;;;;17.07;3.17;;;;;;;4.32;100.00;98723.13;2107336;28;20027;-68
2022/01/09 00:52:23;;;;;;;18.10;4.82;;;;;;;4.31;100.00;98736.94;2107228;28;20024;-67
2022/01/09 00:53:24;;;;;;;20.27;3.20;;;;;;;4.31;100.00;98752.44;2107264;28;20039;-67
2022/01/09 00:54:24;;;;;;;25.03;3.83;;;;;;;4.30;100.00;98752.50;2107237;28;20028;-66
2022/01/09 00:55:24;;;;;;;18.40;4.37;;;;;;;4.31;100.00;98759.38;2107504;28;20027;-66
2022/01/09 00:56:25;;;;;;;26.80;5.00;;;;;;;4.28;100.00;98762.94;2107357;28;20070;-67
2022/01/09 00:57:25;;;;;;;29.83;5.17;;;;;;;4.24;100.00;98763.97;2107168;28;20476;-67
2022/01/09 00:58:25;;;;;;;17.57;3.97;;;;;;;4.18;100.00;98753.97;2098256;28;20024;-65
2022/01/09 00:59:25;;;;;;;18.23;3.27;;;;;;;4.16;100.00;98763.53;2098516;28;20035;-66
2022/01/09 01:00:26;;;;;;;19.60;4.10;;;;;;;4.14;100.00;98762.78;2107194;28;20027;-66
2022/01/09 01:01:26;;;;;;;15.97;2.60;;;;;;;4.13;100.00;98785.16;2106666;28;20047;-64
2022/01/09 01:02:26;;;;;;;29.43;5.43;;;;;;;4.14;100.00;98773.91;2106654;28;20031;-68
2022/01/09 01:03:26;;;;;;;28.83;5.60;;;;;;;4.17;100.00;98780.72;2107176;28;20028;-66
2022/01/09 01:04:27;;;;;;;22.50;4.63;;;;;;;4.21;100.00;98771.91;2107276;28;20034;-65
2022/01/09 01:05:27;;;;;;;24.37;3.97;;;;;;;4.21;100.00;98774.47;2107241;28;20385;-64
2022/01/09 01:06:27;;;;;;;19.30;4.00;;;;;;;4.21;100.00;98789.97;2107152;28;20077;-64
2022/01/09 01:07:28;;;;;;;24.03;5.00;;;;;;;4.20;100.00;98788.28;2107351;28;20027;-65
2022/01/09 01:08:28;;;;;;;31.13;4.88;;;;;;;4.21;100.00;98787.38;2107142;28;20020;-67
2022/01/09 01:09:31;;;;;;;16.33;3.37;;;;;;;4.19;100.00;98792.63;2107200;28;20031;-67
2022/01/09 01:10:31;;;;;;;32.30;5.10;;;;;;;4.20;100.00;98803.78;2107218;28;20036;-66
2022/01/09 01:11:32;;;;;;;27.85;5.28;;;;;;;4.22;100.00;98786.47;2107034;28;20032;-66
2022/01/09 01:12:33;;;;;;;27.93;4.97;;;;;;;4.22;100.00;98799.38;2107140;28;20032;-64
2022/01/09 01:13:33;;;;;;;21.75;4.25;;;;;;;4.21;100.00;98810.63;2107216;28;20032;-66
2022/01/09 01:14:33;;;;;;;20.93;3.63;;;;;;;4.23;100.00;98795.88;2107131;28;20043;-66
2022/01/09 01:15:33;;;;;;;30.77;4.77;;;;;;;4.23;100.00;98801.91;2107265;28;20020;-66
2022/01/09 01:16:34;;;;;;;18.50;3.23;;;;;;;4.25;100.00;98801.81;2107220;28;20505;-65
2022/01/09 01:17:35;;;;;;;23.50;4.87;;;;;;;4.21;100.00;98813.22;2107108;28;20035;-67
2022/01/09 01:18:36;;;;;;;28.00;5.15;;;;;;;4.20;100.00;98808.94;2107140;28;20047;-66
2022/01/09 01:19:36;;;;;;;27.57;7.03;;;;;;;4.17;100.00;98806.53;2098006;28;20496;-65
2022/01/09 01:20:37;;;;;;;22.80;4.57;;;;;;;4.15;100.00;98816.94;2098214;28;20025;-67
2022/01/09 01:21:37;;;;;;;23.20;4.07;;;;;;;4.17;100.00;98829.75;2107138;28;20028;-66
2022/01/09 01:22:39;;;;;;;15.07;3.13;;;;;;;4.14;100.00;98829.91;2098220;28;20378;-66
2022/01/09 01:23:40;;;;;;;20.95;3.55;;;;;;;4.13;100.00;98823.91;2098353;28;20442;-66
2022/01/09 01:24:41;;;;;;;25.85;4.05;;;;;;;4.14;100.00;98830.72;2107244;28;20042;-65
2022/01/09 01:25:44;;;;;;;;;;;;;;;4.12;100.00;98833.41;2098411;28;20020;-65
2022/01/09 01:26:44;;;;;;;26.83;5.13;;;;;;;4.12;100.00;98833.41;2098521;28;19962;-64
2022/01/09 01:27:45;;;;;;;18.50;4.00;;;;;;;4.11;100.00;98839.47;2107048;28;20473;-66
2022/01/09 01:28:45;;;;;;;16.13;3.63;;;;;;;4.11;100.00;98836.88;2106936;28;20048;-66
2022/01/09 01:29:45;;;;;;;26.27;4.47;;;;;;;4.15;100.00;98836.72;2106388;28;20024;-65
2022/01/09 01:30:46;;;;;;;20.90;3.27;;;;;;;4.16;100.00;98834.09;2106394;28;20270;-66
2022/01/09 01:31:46;;;;;;;23.20;3.33;;;;;;;4.16;100.00;98833.22;2107183;28;20093;-67
2022/01/09 01:32:46;;;;;;;20.70;4.00;;;;;;;4.18;100.00;98846.91;2107100;28;20032;-64
2022/01/09 01:33:46;;;;;;;23.50;3.80;;;;;;;4.14;100.00;98851.38;2107216;28;20469;-66
2022/01/09 01:34:47;;;;;;;22.80;4.53;;;;;;;4.11;100.00;98836.88;2107064;28;20024;-67
2022/01/09 01:35:47;;;;;;;23.40;3.53;;;;;;;4.11;100.00;98846.38;2107043;28;20012;-66
2022/01/09 01:36:47;;;;;;;29.07;3.43;;;;;;;4.09;100.00;98861.09;2107123;28;20465;-67
2022/01/09 01:37:48;;;;;;;23.57;5.37;;;;;;;4.15;100.00;98857.38;2107082;28;20089;-66
2022/01/09 01:38:48;;;;;;;33.97;5.93;;;;;;;4.10;100.00;98860.19;2097982;28;20115;-66
2022/01/09 01:39:49;;;;;;;28.00;5.27;;;;;;;4.08;100.00;98868.00;2098048;28;20016;-65
2022/01/09 01:40:49;;;;;;;19.08;3.80;;;;;;;4.13;100.00;98862.63;2098038;28;20016;-66
2022/01/09 01:41:49;;;;;;;22.43;3.90;;;;;;;4.12;100.00;98869.56;2107131;28;20024;-65
2022/01/09 01:42:50;;;;;;;22.17;4.10;;;;;;;4.16;100.00;98875.38;2106796;28;20469;-66
2022/01/09 01:43:50;;;;;;;40.67;4.27;;;;;;;4.18;100.00;98877.91;2107039;28;20031;-65
2022/01/09 01:44:51;;;;;;;38.13;4.87;;;;;;;4.22;100.00;98875.09;2107038;28;20485;-64
2022/01/09 01:45:52;;;;;;;20.95;3.92;;;;;;;4.24;100.00;98882.75;2097759;28;20191;-64
2022/01/09 01:46:52;;;;;;;20.92;4.50;;;;;;;4.24;100.00;98877.59;2098052;28;20036;-65
2022/01/09 01:47:53;;;;;;;25.33;4.60;;;;;;;4.26;100.00;98883.53;2107037;28;20020;-64
2022/01/09 01:48:53;;;;;;;19.10;3.90;;;;;;;4.29;100.00;98885.97;2106865;28;20099;-66
2022/01/09 01:49:54;;;;;;;13.30;4.40;;;;;;;4.32;100.00;98878.09;2097856;28;20051;-65
2022/01/09 01:50:54;;;;;;;20.40;3.37;;;;;;;4.34;100.00;98884.00;2097979;28;20297;-66
2022/01/09 01:51:54;;;;;;;18.83;4.50;;;;;;;4.33;100.00;98903.00;2097756;28;20028;-66
2022/01/09 01:52:56;;;;;;;25.30;4.67;;;;;;;4.34;100.00;98904.66;2097918;28;20476;-67
2022/01/09 01:53:57;;;;;;;21.60;4.50;;;;;;;4.37;100.00;98904.53;2107074;28;20442;-65
2022/01/09 01:54:58;;;;;;;33.65;4.80;;;;;;;4.36;100.00;98879.63;2097794;28;20020;-65
2022/01/09 01:56:00;;;;;;;24.63;5.67;;;;;;;4.35;100.00;98890.81;2097950;28;20032;-65
2022/01/09 01:57:02;;;;;;;29.60;4.70;;;;;;;4.40;100.00;98913.00;2106661;28;20019;-65
2022/01/09 01:58:08;;;;;;;29.52;4.93;;;;;;;4.42;100.00;98921.53;2106909;28;20587;-67
2022/01/09 01:59:08;;;;;;;27.73;5.82;;;;;;;4.38;100.00;98913.94;2106807;28;20024;-66
2022/01/09 02:00:13;;;;;;;22.80;4.40;;;;;;;4.38;100.00;98919.09;2106903;28;20373;-66
2022/01/09 02:01:13;;;;;;;22.15;5.40;;;;;;;4.32;100.00;98909.09;2106840;28;20386;-65
2022/01/09 02:02:13;;;;;;;16.47;3.63;;;;;;;4.35;100.00;98921.81;2106009;28;20051;-65
2022/01/09 02:03:14;;;;;;;17.77;4.70;;;;;;;4.36;100.00;98917.50;2106206;28;20032;-64
2022/01/09 02:04:15;;;;;;;33.10;4.60;;;;;;;4.32;100.00;98922.00;2106725;28;20024;-68
2022/01/09 02:05:15;;;;;;;27.45;4.95;;;;;;;4.29;100.00;98923.88;2106660;28;20031;-66
2022/01/09 02:06:17;;;;;;;34.37;5.10;;;;;;;4.34;100.00;98921.91;2106787;28;20052;-68
2022/01/09 02:07:18;;;;;;;25.08;4.90;;;;;;;4.35;100.00;98936.50;2097652;28;20409;-67
2022/01/09 02:08:19;;;;;;;26.15;5.53;;;;;;;4.33;100.00;98934.00;2097770;28;20119;-67
2022/01/09 02:09:19;;;;;;;23.75;5.90;;;;;;;4.33;100.00;98944.31;2106707;28;20032;-66
2022/01/09 02:10:19;;;;;;;32.20;5.27;;;;;;;4.32;100.00;98942.66;2106703;28;20469;-67
2022/01/09 02:11:20;;;;;;;18.43;3.13;;;;;;;4.32;100.00;98947.81;2106639;28;20024;-67
2022/01/09 02:12:21;;;;;;;30.35;5.28;;;;;;;4.35;100.00;98949.41;2106568;28;20400;-67
2022/01/09 02:13:21;;;;;;;21.03;5.93;;;;;;;4.38;100.00;98941.53;2106692;28;20020;-66
2022/01/09 02:14:22;;;;;;;38.60;8.85;;;;;;;4.41;100.00;98945.72;2106650;28;20085;-65
2022/01/09 02:15:31;;;;;;;35.47;6.60;;;;;;;4.43;100.00;98960.22;2106642;28;20440;-67
2022/01/09 02:16:31;;;;;;;20.33;5.28;;;;;;;4.50;100.00;98947.84;2106556;28;20070;-66
2022/01/09 02:17:32;;;;;;;37.35;7.22;;;;;;;4.53;100.00;98960.63;2105974;28;20027;-67
2022/01/09 02:18:32;;;;;;;23.97;6.33;;;;;;;4.55;100.00;98948.44;2106119;28;20050;-66
2022/01/09 02:19:32;;;;;;;37.30;5.90;;;;;;;4.58;100.00;98958.66;2106593;28;20106;-65
2022/01/09 02:20:34;;;;;;;28.17;5.93;;;;;;;4.63;100.00;98961.84;2106624;28;20016;-65
2022/01/09 02:21:34;;;;;;;26.00;6.95;;;;;;;4.62;100.00;98964.53;2106616;28;20056;-66
2022/01/09 02:22:35;;;;;;;28.70;5.30;;;;;;;4.60;100.00;98969.75;2097633;28;20029;-65
2022/01/09 02:23:38;;;;;;;30.88;6.82;;;;;;;4.63;100.00;98967.00;2097679;28;20033;-64
2022/01/09 02:24:38;;;;;;;31.90;6.70;;;;;;;4.67;100.00;98967.72;2106568;28;20028;-64
2022/01/09 02:25:39;;;;;;;44.67;8.00;;;;;;;4.69;100.00;98971.03;2106604;28;20497;-66
2022/01/09 02:26:40;;;;;;;26.95;8.10;;;;;;;4.70;100.00;98971.88;2106570;28;20052;-68
2022/01/09 02:27:40;;;;;;;32.80;6.00;;;;;;;4.69;100.00;98972.81;2106590;28;20330;-67
2022/01/09 02:28:40;;;;;;;29.37;6.23;;;;;;;4.67;100.00;98975.47;2106449;28;20101;-66
2022/01/09 02:29:41;;;;;;;32.00;5.90;;;;;;;4.70;100.00;98982.22;2097586;28;20069;-67
2022/01/09 02:30:42;;;;;;;48.77;8.50;;;;;;;4.71;100.00;98978.72;2097647;28;20028;-68
2022/01/09 02:31:43;;;;;;;38.35;6.43;;;;;;;4.68;100.00;98978.91;2106409;28;20444;-68
2022/01/09 02:32:43;;;;;;;37.00;8.27;;;;;;;4.70;100.00;98974.47;2106533;28;20059;-65
2022/01/09 02:33:43;;;;;;;33.87;6.13;;;;;;;4.75;100.00;98991.44;2097622;28;20036;-65
2022/01/09 02:34:50;;;;;;;28.87;6.40;;;;;;;4.77;100.00;98986.19;2097629;28;20035;-67
2022/01/09 02:35:52;;;;;;;31.45;5.38;;;;;;;4.76;100.00;98990.50;2106520;28;20024;-65
2022/01/09 02:36:52;;;;;;;38.30;6.97;;;;;;;4.76;100.00;98993.09;2097456;28;20027;-68
2022/01/09 02:37:53;;;;;;;21.53;6.40;;;;;;;4.75;100.00;98990.59;2097561;28;20343;-67
2022/01/09 02:38:53;;;;;;;39.00;6.55;;;;;;;4.75;100.00;98995.75;2106482;28;20035;-68
2022/01/09 02:39:53;;;;;;;33.17;7.37;;;;;;;4.73;100.00;98997.59;2106464;28;20025;-67
2022/01/09 02:40:54;;;;;;;31.57;6.47;;;;;;;4.71;100.00;99001.97;2106553;28;20030;-66
2022/01/09 02:41:54;;;;;;;29.95;6.53;;;;;;;4.73;100.00;99002.75;2097437;28;20023;-68
2022/01/09 02:42:55;;;;;;;27.10;6.03;;;;;;;4.76;100.00;98997.44;2097576;28;20024;-65
2022/01/09 02:43:55;;;;;;;31.13;6.07;;;;;;;4.78;100.00;99005.94;2106298;28;20021;-65
2022/01/09 02:44:56;;;;;;;26.80;6.30;;;;;;;4.85;100.00;99009.06;2106529;28;20346;-68
2022/01/09 02:46:12;;;;;;;23.00;5.05;;;;;;;4.80;100.00;99006.72;2106499;28;20461;-68
2022/01/09 02:47:13;;;;;;;30.90;7.10;;;;;;;4.83;100.00;99019.47;2106425;28;20031;-67
2022/01/09 02:48:13;;;;;;;21.97;5.87;;;;;;;4.81;100.00;99010.97;2106379;28;20058;-65
2022/01/09 02:49:13;;;;;;;35.33;5.10;;;;;;;4.79;100.00;99028.28;2106423;28;20034;-68
2022/01/09 02:51:24;;;;;;;33.00;5.70;;;;;;;4.80;100.00;99023.97;2106423;28;20136;-67
2022/01/09 02:52:33;;;;;;;22.98;7.00;;;;;;;4.82;100.00;99028.16;2106386;28;20090;-68
2022/01/09 02:53:35;;;;;;;37.35;5.45;;;;;;;4.83;100.00;99026.41;2106408;28;20039;-66
2022/01/09 02:55:54;;;;;;;26.90;5.47;;;;;;;4.74;100.00;99036.28;2106463;28;20028;-64
2022/01/09 02:56:55;;;;;;;18.93;4.00;;;;;;;4.77;100.00;99040.47;2106436;28;20035;-65
2022/01/09 02:57:58;;;;;;;27.53;4.67;;;;;;;4.80;100.00;99045.50;2106410;28;20504;-65
2022/01/09 02:58:58;;;;;;;27.33;4.72;;;;;;;4.79;100.00;99036.03;2106354;28;20119;-66
2022/01/09 02:59:58;;;;;;;27.53;4.73;;;;;;;4.80;100.00;99053.25;2106280;28;20046;-69
2022/01/09 03:01:00;;;;;;;23.15;4.72;;;;;;;4.78;100.00;99052.47;2106363;28;20071;-69
2022/01/09 03:02:00;;;;;;;22.42;4.20;;;;;;;4.74;100.00;99056.97;2097380;28;20032;-67
2022/01/09 03:03:01;;;;;;;23.50;4.90;;;;;;;4.77;100.00;99055.97;2097487;28;20104;-66
2022/01/09 03:04:01;;;;;;;41.92;5.63;;;;;;;4.80;100.00;99060.16;2097308;28;20371;-67
2022/01/09 03:05:02;;;;;;;29.43;5.80;;;;;;;4.81;100.00;99059.25;2089133;28;20128;-68
2022/01/09 03:06:03;;;;;;;24.08;5.47;;;;;;;4.84;100.00;99067.69;2097445;28;20099;-67
2022/01/09 03:07:04;;;;;;;29.20;4.93;;;;;;;4.81;100.00;99067.84;2106451;28;20028;-66
2022/01/09 03:08:04;;;;;;;29.65;6.20;;;;;;;4.80;100.00;99057.56;2106246;28;20111;-66
2022/01/09 03:09:06;;;;;;;16.27;4.60;;;;;;;4.81;100.00;99080.75;2107062;28;20020;-68
2022/01/09 03:10:08;;;;;;;24.42;4.45;;;;;;;4.78;100.00;99078.31;2098889;28;20052;-67
2022/01/09 03:11:09;;;;;;;27.13;5.28;;;;;;;4.79;100.00;99074.81;2099091;28;20505;-65
2022/01/09 03:12:12;;;;;;;25.47;5.73;;;;;;;4.78;100.00;99078.31;2107852;28;20048;-64
2022/01/09 03:13:12;;;;;;;22.45;4.82;;;;;;;4.77;100.00;99084.41;2107942;28;20388;-68
2022/01/09 03:14:13;;;;;;;25.83;5.67;;;;;;;4.73;100.00;99090.63;2108014;28;20020;-66
2022/01/09 03:15:14;;;;;;;24.45;4.95;;;;;;;4.71;100.00;99089.84;2098863;28;20390;-67
2022/01/09 03:16:14;;;;;;;13.10;3.13;;;;;;;4.67;100.00;99085.72;2098989;28;20040;-67
2022/01/09 03:17:14;;;;;;;14.33;3.30;;;;;;;4.71;100.00;99084.69;2107931;28;20019;-66
2022/01/09 03:18:15;;;;;;;13.50;3.90;;;;;;;4.72;100.00;99094.94;2107887;28;20473;-67
2022/01/09 03:19:15;;;;;;;20.40;3.97;;;;;;;4.71;100.00;99098.44;2107915;28;20024;-66
2022/01/09 03:20:18;;;;;;;25.37;5.27;;;;;;;4.69;100.00;99104.59;2107887;28;20019;-68
2022/01/09 03:21:18;;;;;;;19.05;3.08;;;;;;;4.66;100.00;99094.41;2107932;28;20032;-65
2022/01/09 03:22:19;;;;;;;16.63;3.67;;;;;;;4.70;100.00;99108.84;2107949;28;20020;-67
2022/01/09 03:23:19;;;;;;;20.33;3.83;;;;;;;4.73;100.00;99108.72;2107937;28;20055;-70
2022/01/09 03:24:19;;;;;;;27.97;4.03;;;;;;;4.69;100.00;99109.78;2107927;28;20111;-68
2022/01/09 03:25:19;;;;;;;18.47;3.27;;;;;;;4.67;100.00;99114.16;2107981;28;20032;-67
2022/01/09 03:26:20;;;;;;;12.77;3.13;;;;;;;4.67;100.00;99115.00;2108041;28;20024;-69
2022/01/09 03:27:20;;;;;;;18.83;3.77;;;;;;;4.63;100.00;99119.44;2108000;28;20099;-67
2022/01/09 03:28:20;;;;;;;23.50;4.00;;;;;;;4.64;100.00;99115.97;2107727;28;20031;-65
2022/01/09 03:29:20;;;;;;;17.37;4.23;;;;;;;4.69;100.00;99125.28;2098860;28;20028;-67
2022/01/09 03:30:22;;;;;;;13.13;3.10;;;;;;;4.69;100.00;99122.69;2098865;28;20021;-68
2022/01/09 03:31:22;;;;;;;;;;;;;;;4.66;100.00;99120.25;2108365;28;20084;-64
2022/01/09 03:32:22;;;;;;;20.60;3.85;;;;;;;4.67;100.00;99127.06;2107723;28;20407;-66
2022/01/09 03:33:22;;;;;;;25.30;3.97;;;;;;;4.64;100.00;99134.06;2098809;28;20112;-66
2022/01/09 03:34:23;;;;;;;20.77;3.20;;;;;;;4.62;100.00;99135.88;2098975;28;20477;-64
2022/01/09 03:35:25;;;;;;;31.20;5.57;;;;;;;4.61;100.00;99129.03;2107869;28;20054;-66
2022/01/09 03:36:25;;;;;;;20.73;4.75;;;;;;;4.61;100.00;99139.38;2098764;28;20386;-66
2022/01/09 03:37:26;;;;;;;26.37;6.43;;;;;;;4.62;100.00;99146.22;2098952;28;20054;-66
2022/01/09 03:38:26;;;;;;;31.73;5.47;;;;;;;4.59;100.00;99146.34;2107812;28;20573;-67
2022/01/09 03:39:27;;;;;;;22.37;4.30;;;;;;;4.56;100.00;99149.09;2107778;28;20063;-67
2022/01/09 03:40:28;;;;;;;14.75;2.58;;;;;;;4.54;100.00;99148.31;2107819;28;20032;-68
2022/01/09 03:41:29;;;;;;;13.32;3.53;;;;;;;4.50;100.00;99152.78;2107752;28;20024;-67
2022/01/09 03:42:29;;;;;;;22.83;4.30;;;;;;;4.53;100.00;99136.31;2098725;28;20115;-65
2022/01/09 03:43:29;;;;;;;16.67;3.70;;;;;;;4.54;100.00;99157.78;2098867;28;20028;-68
2022/01/09 03:44:30;;;;;;;17.30;3.77;;;;;;;4.55;100.00;99154.31;2107714;28;20023;-66
2022/01/09 03:45:30;;;;;;;20.15;5.28;;;;;;;4.50;100.00;99162.25;2107711;28;20107;-66
2022/01/09 03:46:31;;;;;;;22.30;4.40;;;;;;;4.53;100.00;99153.53;2107794;28;20024;-66
2022/01/09 03:47:31;;;;;;;19.07;2.73;;;;;;;4.55;100.00;99164.66;2107782;28;20504;-65
2022/01/09 03:48:32;;;;;;;19.38;3.38;;;;;;;4.54;100.00;99174.13;2107717;28;20031;-67
2022/01/09 03:49:32;;;;;;;23.20;4.97;;;;;;;4.50;100.00;99165.69;2107688;28;20338;-69
2022/01/09 03:50:33;;;;;;;16.60;4.00;;;;;;;4.46;100.00;99176.22;2107778;28;20359;-65
2022/01/09 03:51:36;;;;;;;20.08;3.97;;;;;;;4.49;100.00;99176.09;2107700;28;20020;-67
2022/01/09 03:52:39;;;;;;;19.55;3.45;;;;;;;4.50;100.00;99188.09;2107663;28;20035;-68
2022/01/09 03:53:39;;;;;;;20.35;4.47;;;;;;;4.43;100.00;99186.69;2098675;28;20194;-69
2022/01/09 03:54:40;;;;;;;21.35;3.25;;;;;;;4.40;100.00;99177.34;2098726;28;20020;-68
2022/01/09 03:55:40;;;;;;;25.47;4.03;;;;;;;4.38;100.00;99185.13;2107743;28;20085;-68
2022/01/09 03:56:40;;;;;;;18.03;3.17;;;;;;;4.42;100.00;99195.34;2107589;28;20024;-66
2022/01/09 03:57:41;;;;;;;16.43;3.27;;;;;;;4.45;100.00;99195.22;2107644;28;20020;-66
2022/01/09 03:58:41;;;;;;;10.55;2.70;;;;;;;4.42;100.00;99190.19;2107692;28;20362;-65
2022/01/09 03:59:41;;;;;;;17.70;2.83;;;;;;;4.41;100.00;99185.94;2107662;28;20461;-68
2022/01/09 04:00:42;;;;;;;28.63;6.97;;;;;;;4.42;100.00;99195.34;2107647;28;20024;-68
2022/01/09 04:01:42;;;;;;;34.00;3.83;;;;;;;4.41;100.00;99193.69;2107724;28;20035;-68
2022/01/09 04:02:43;;;;;;;14.00;2.93;;;;;;;4.45;100.00;99205.56;2107672;28;20161;-67
2022/01/09 04:03:43;;;;;;;16.98;2.60;;;;;;;4.43;100.00;99197.00;2107673;28;20024;-66
2022/01/09 04:04:44;;;;;;;13.47;3.47;;;;;;;4.42;100.00;99211.69;2098618;28;20389;-68
2022/01/09 04:05:44;;;;;;;18.53;4.73;;;;;;;4.39;100.00;99217.00;2098643;28;20021;-69
2022/01/09 04:06:49;;;;;;;14.83;3.73;;;;;;;4.35;100.00;99212.84;2107592;28;20020;-65
2022/01/09 04:07:50;;;;;;;13.77;3.30;;;;;;;4.41;100.00;99215.16;2107542;28;20039;-68
2022/01/09 04:08:55;;;;;;;11.07;2.78;;;;;;;4.41;100.00;99224.69;2098490;28;20107;-68
2022/01/09 04:09:56;;;;;;;21.48;4.03;;;;;;;4.37;100.00;99224.78;2099225;28;20069;-69
2022/01/09 04:10:56;;;;;;;13.00;3.23;;;;;;;4.35;100.00;99226.59;2107615;28;20480;-67
2022/01/09 04:12:02;;;;;;;20.30;4.15;;;;;;;4.30;100.00;99227.69;2107454;28;20512;-68
2022/01/09 04:13:03;;;;;;;15.07;2.85;;;;;;;4.30;100.00;99227.69;2098513;28;20025;-66
2022/01/09 04:14:04;;;;;;;8.87;2.47;;;;;;;4.31;100.00;99221.66;2098586;28;20135;-66
2022/01/09 04:15:06;;;;;;;15.10;4.28;;;;;;;4.28;100.00;99230.38;2107516;28;20020;-68
2022/01/09 04:16:07;;;;;;;14.60;3.05;;;;;;;4.27;100.00;99233.81;2107435;28;20424;-67
2022/01/09 04:17:12;;;;;;;18.23;2.80;;;;;;;4.24;100.00;99244.28;2098380;28;20028;-65
2022/01/09 04:18:14;;;;;;;20.23;3.00;;;;;;;4.26;100.00;99247.66;2099219;28;20029;-68
2022/01/09 04:19:15;;;;;;;15.35;3.47;;;;;;;4.22;100.00;99243.53;2107380;28;20040;-69
2022/01/09 04:20:15;;;;;;;28.13;4.10;;;;;;;4.17;100.00;99233.38;2107136;28;20103;-67
2022/01/09 04:21:15;;;;;;;12.23;2.43;;;;;;;4.18;100.00;99241.97;2098318;28;20122;-68
2022/01/09 04:22:16;;;;;;;14.00;3.40;;;;;;;4.17;100.00;99242.88;2098653;28;20020;-67
2022/01/09 04:23:18;;;;;;;13.43;2.63;;;;;;;4.18;100.00;99252.31;2107408;28;20081;-66
2022/01/09 04:24:18;;;;;;;12.52;2.95;;;;;;;4.20;100.00;99260.81;2107360;28;20086;-68
2022/01/09 04:25:19;;;;;;;16.50;3.47;;;;;;;4.16;100.00;99261.84;2107485;28;20122;-67
2022/01/09 04:26:21;;;;;;;17.27;2.70;;;;;;;4.18;100.00;99262.63;2098288;28;20112;-66
2022/01/09 04:27:22;;;;;;;23.00;3.33;;;;;;;4.15;100.00;99257.59;2098598;28;20032;-68
2022/01/09 04:28:22;;;;;;;13.77;3.07;;;;;;;4.14;100.00;99258.50;2107311;28;20043;-65
2022/01/09 04:29:22;;;;;;;14.03;4.07;;;;;;;4.15;100.00;99265.34;2107463;28;20074;-69
2022/01/09 04:30:23;;;;;;;17.80;3.23;;;;;;;4.06;100.00;99267.38;2098346;28;20024;-69
2022/01/09 04:31:23;;;;;;;10.43;2.53;;;;;;;4.09;100.00;99264.69;2098408;28;20107;-66
2022/01/09 04:32:24;;;;;;;21.20;2.60;;;;;;;4.11;100.00;99278.38;2107329;28;20035;-66
2022/01/09 04:33:24;;;;;;;12.07;3.97;;;;;;;4.11;100.00;99272.38;2107312;28;20028;-68
2022/01/09 04:34:25;;;;;;;18.80;5.30;;;;;;;4.09;100.00;99282.75;2107376;28;20043;-70
2022/01/09 04:35:25;;;;;;;21.10;4.30;;;;;;;4.06;100.00;99275.13;2107356;28;20032;-68
2022/01/09 04:36:26;;;;;;;9.90;1.90;;;;;;;4.06;100.00;99272.56;2107355;28;20055;-65
2022/01/09 04:37:26;;;;;;;9.95;2.95;;;;;;;4.09;100.00;99279.34;2107316;28;20028;-67
2022/01/09 04:38:27;;;;;;;18.23;3.10;;;;;;;4.08;100.00;99291.38;2107346;28;20036;-70
2022/01/09 04:39:28;;;;;;;10.23;2.10;;;;;;;4.04;100.00;99295.00;2107259;28;20052;-68
2022/01/09 04:40:28;;;;;;;16.38;2.78;;;;;;;3.98;100.00;99295.25;2107306;28;20017;-69
2022/01/09 04:41:29;;;;;;;13.87;2.37;;;;;;;3.98;100.00;99293.50;2107283;28;20395;-67
2022/01/09 04:42:37;;;;;;;10.43;2.20;;;;;;;4.00;100.00;99288.28;2107262;28;20012;-66
2022/01/09 04:43:38;;;;;;;19.60;3.65;;;;;;;4.04;100.00;99304.50;2098213;28;20032;-68
2022/01/09 04:44:38;;;;;;;20.43;2.63;;;;;;;4.04;100.00;99300.16;2098244;28;20020;-68
2022/01/09 04:45:39;;;;;;;17.33;2.93;;;;;;;4.01;100.00;99305.47;2107240;28;20028;-69
2022/01/09 04:46:45;;;;;;;13.02;3.70;;;;;;;4.02;100.00;99301.97;2107231;28;20016;-69